createdAt,value
2017-06-11T00:00:28.347Z,68.23
2017-06-11T00:01:40.637Z,68.52
2017-06-11T00:02:53.415Z,68.8
2017-06-11T00:04:06.193Z,68.87
2017-06-11T00:05:18.485Z,69.06
2017-06-11T00:06:31.265Z,68.87
2017-06-11T00:07:43.560Z,69.25
2017-06-11T00:08:56.533Z,69.44
2017-06-11T00:10:08.826Z,69.15
2017-06-11T00:11:21.600Z,69.35
2017-06-11T00:12:34.375Z,69.54
2017-06-11T00:13:47.150Z,69.44
2017-06-11T00:14:59.924Z,69.06
2017-06-11T00:16:12.221Z,68.96
2017-06-11T00:17:24.514Z,68.77
2017-06-11T00:18:36.808Z,68.39
2017-06-11T00:19:49.586Z,68.45
2017-06-11T00:21:02.362Z,68.96
2017-06-11T00:22:15.133Z,69.41
2017-06-11T00:23:27.909Z,70.27
2017-06-11T00:24:40.407Z,70.27
2017-06-11T00:25:53.189Z,70.17
2017-06-11T00:27:05.521Z,69.89
2017-06-11T00:28:18.293Z,70.75
2017-06-11T00:29:30.627Z,71.8
2017-06-11T00:30:42.542Z,71.8
2017-06-11T00:31:54.948Z,72.08
2017-06-11T00:33:07.840Z,71.89
2017-06-11T00:34:20.737Z,71.89
2017-06-11T00:35:33.341Z,72.56
2017-06-11T00:36:46.237Z,72.37
2017-06-11T00:37:59.132Z,72.18
2017-06-11T00:39:12.029Z,72.94
2017-06-11T00:40:24.436Z,73.23
2017-06-11T00:41:36.848Z,73.61
2017-06-11T00:42:49.746Z,73.99
2017-06-11T00:44:02.641Z,73.99
2017-06-11T00:45:15.549Z,74.76
2017-06-11T00:46:28.446Z,73.55
2017-06-11T00:47:40.852Z,73.65
2017-06-11T00:48:53.751Z,74.04
2017-06-11T00:50:06.646Z,74.13
2017-06-11T00:51:19.538Z,73.94
2017-06-11T00:52:32.661Z,73.27
2017-06-11T00:53:45.561Z,73.17
2017-06-11T00:54:57.967Z,73.27
2017-06-11T00:56:10.857Z,72.6
2017-06-11T00:57:23.763Z,73.33
2017-06-11T00:58:36.656Z,73.23
2017-06-11T00:59:48.576Z,73.43
2017-06-11T01:01:00.978Z,72.66
2017-06-11T01:02:12.906Z,72.75
2017-06-11T01:03:25.802Z,72.75
2017-06-11T01:04:38.212Z,73.52
2017-06-11T01:05:51.108Z,73.8
2017-06-11T01:07:04.026Z,74.19
2017-06-11T01:08:16.143Z,73.52
2017-06-11T01:09:29.043Z,73.61
2017-06-11T01:10:41.944Z,74.15
2017-06-11T01:11:53.869Z,74.48
2017-06-11T01:13:06.774Z,73.99
2017-06-11T01:14:19.677Z,74.48
2017-06-11T01:15:32.098Z,74.95
2017-06-11T01:16:44.527Z,74.48
2017-06-11T01:17:57.443Z,74.66
2017-06-11T01:19:10.072Z,74.48
2017-06-11T01:20:22.981Z,74.48
2017-06-11T01:21:35.898Z,75.05
2017-06-11T01:22:48.816Z,75.43
2017-06-11T01:24:01.238Z,75.24
2017-06-11T01:25:14.355Z,75.24
2017-06-11T01:26:27.276Z,75.62
2017-06-11T01:27:40.190Z,74.95
2017-06-11T01:28:53.105Z,74.28
2017-06-11T01:30:06.022Z,75.24
2017-06-11T01:31:18.444Z,75.71
2017-06-11T01:32:31.394Z,75.71
2017-06-11T01:33:43.817Z,75.62
2017-06-11T01:34:56.733Z,75.62
2017-06-11T01:36:09.645Z,76.29
2017-06-11T01:37:22.561Z,76.57
2017-06-11T01:38:35.474Z,76.96
2017-06-11T01:39:48.386Z,77.06
2017-06-11T01:41:01.298Z,76
2017-06-11T01:42:14.211Z,76.2
2017-06-11T01:43:26.635Z,75.71
2017-06-11T01:44:39.551Z,76
2017-06-11T01:45:51.971Z,75.71
2017-06-11T01:47:05.084Z,75.81
2017-06-11T01:48:18.001Z,76.29
2017-06-11T01:49:30.939Z,75.43
2017-06-11T01:50:43.930Z,75.24
2017-06-11T01:51:56.628Z,73.61
2017-06-11T01:53:09.126Z,72.66
2017-06-11T01:54:21.126Z,71.42
2017-06-11T01:55:34.123Z,71.03
2017-06-11T01:56:47.117Z,73.23
2017-06-11T01:58:00.313Z,73.52
2017-06-11T01:59:13.302Z,73.43
2017-06-11T02:00:26.295Z,73.61
2017-06-11T02:01:38.796Z,73.61
2017-06-11T02:02:51.295Z,73.52
2017-06-11T02:04:04.286Z,73.61
2017-06-11T02:05:17.278Z,73.9
2017-06-11T02:06:30.276Z,73.8
2017-06-11T02:07:42.775Z,74.19
2017-06-11T02:08:55.797Z,74.09
2017-06-11T02:10:08.791Z,75.05
2017-06-11T02:11:21.780Z,74.76
2017-06-11T02:12:34.777Z,75.43
2017-06-11T02:13:47.768Z,75.05
2017-06-11T02:15:00.758Z,75.14
2017-06-11T02:16:13.255Z,76
2017-06-11T02:17:26.251Z,76.82
2017-06-11T02:18:39.243Z,76.86
2017-06-11T02:19:51.942Z,76.86
2017-06-11T02:21:04.939Z,75.2
2017-06-11T02:22:17.911Z,75.2
2017-06-11T02:23:30.862Z,74.82
2017-06-11T02:24:43.983Z,74.63
2017-06-11T02:25:56.895Z,74.44
2017-06-11T02:27:09.317Z,73.67
2017-06-11T02:28:22.232Z,73.96
2017-06-11T02:29:35.144Z,73.1
2017-06-11T02:30:47.562Z,73.19
2017-06-11T02:32:00.472Z,73.48
2017-06-11T02:33:12.893Z,73.67
2017-06-11T02:34:25.316Z,73.29
2017-06-11T02:35:38.434Z,72.94
2017-06-11T02:36:50.862Z,73.48
2017-06-11T02:38:03.775Z,73.29
2017-06-11T02:39:16.200Z,73.19
2017-06-11T02:40:29.145Z,73.67
2017-06-11T02:41:41.775Z,73.86
2017-06-11T02:42:54.198Z,74.24
2017-06-11T02:44:07.108Z,74.53
2017-06-11T02:45:19.512Z,74.91
2017-06-11T02:46:32.403Z,74.44
2017-06-11T02:47:44.822Z,73.96
2017-06-11T02:48:57.229Z,74.15
2017-06-11T02:50:10.124Z,73.67
2017-06-11T02:51:23.016Z,74.05
2017-06-11T02:52:36.109Z,73.48
2017-06-11T02:53:48.524Z,73.48
2017-06-11T02:55:01.416Z,73.29
2017-06-11T02:56:13.822Z,73.19
2017-06-11T02:57:26.915Z,73.29
2017-06-11T02:58:39.815Z,73.1
2017-06-11T02:59:52.222Z,73.77
2017-06-11T03:01:05.112Z,74.73
2017-06-11T03:02:17.516Z,73.67
2017-06-11T03:03:30.405Z,74.05
2017-06-11T03:04:42.811Z,74.05
2017-06-11T03:05:55.216Z,74.73
2017-06-11T03:07:08.106Z,74.91
2017-06-11T03:08:20.505Z,74.88
2017-06-11T03:09:33.397Z,74.69
2017-06-11T03:10:46.322Z,74.3
2017-06-11T03:11:59.215Z,74.21
2017-06-11T03:13:12.116Z,74.21
2017-06-11T03:14:25.213Z,74.69
2017-06-11T03:15:38.106Z,74.02
2017-06-11T03:16:51.006Z,74.63
2017-06-11T03:18:03.407Z,74.15
2017-06-11T03:19:15.520Z,73.48
2017-06-11T03:20:28.414Z,73.67
2017-06-11T03:21:40.811Z,73.67
2017-06-11T03:22:53.712Z,73.58
2017-06-11T03:24:06.602Z,73.39
2017-06-11T03:25:19.212Z,73.39
2017-06-11T03:26:32.109Z,73.39
2017-06-11T03:27:45.010Z,73.58
2017-06-11T03:28:57.924Z,73.39
2017-06-11T03:30:10.348Z,74.53
2017-06-11T03:31:23.256Z,74.24
2017-06-11T03:32:36.168Z,74.05
2017-06-11T03:33:48.594Z,74.44
2017-06-11T03:35:01.040Z,74.91
2017-06-11T03:36:14.156Z,74.15
2017-06-11T03:37:27.066Z,74.44
2017-06-11T03:38:39.976Z,75.01
2017-06-11T03:39:52.895Z,74.44
2017-06-11T03:41:05.515Z,74.44
2017-06-11T03:42:18.428Z,74.34
2017-06-11T03:43:31.339Z,74.24
2017-06-11T03:44:44.248Z,73.96
2017-06-11T03:45:56.671Z,73.58
2017-06-11T03:47:09.783Z,74.53
2017-06-11T03:48:22.207Z,74.53
2017-06-11T03:49:35.120Z,74.44
2017-06-11T03:50:47.537Z,74.63
2017-06-11T03:52:00.450Z,74.34
2017-06-11T03:53:13.365Z,74.24
2017-06-11T03:54:26.273Z,74.73
2017-06-11T03:55:38.694Z,74.91
2017-06-11T03:56:51.609Z,74.24
2017-06-11T03:58:04.724Z,74.73
2017-06-11T03:59:17.636Z,75.39
2017-06-11T04:00:30.057Z,75.01
2017-06-11T04:01:42.476Z,75.49
2017-06-11T04:02:55.429Z,75.54
2017-06-11T04:04:07.982Z,75.26
2017-06-11T04:05:20.540Z,75.74
2017-06-11T04:06:33.094Z,75.74
2017-06-11T04:07:45.649Z,75.68
2017-06-11T04:08:58.700Z,76.54
2017-06-11T04:10:11.751Z,77.69
2017-06-11T04:11:24.805Z,78.36
2017-06-11T04:12:37.362Z,78.74
2017-06-11T04:13:50.369Z,78.64
2017-06-11T04:15:02.795Z,79.22
2017-06-11T04:16:15.710Z,78.93
2017-06-11T04:17:28.134Z,79.02
2017-06-11T04:18:41.051Z,78.93
2017-06-11T04:19:54.176Z,79.02
2017-06-11T04:21:07.095Z,79.41
2017-06-11T04:22:20.009Z,79.12
2017-06-11T04:23:32.925Z,79.69
2017-06-11T04:24:45.839Z,80.8
2017-06-11T04:25:58.264Z,80.9
2017-06-11T04:27:11.182Z,81.27
2017-06-11T04:28:24.128Z,81.37
2017-06-11T04:29:37.048Z,81.47
2017-06-11T04:30:50.162Z,81.37
2017-06-11T04:32:03.076Z,81.47
2017-06-11T04:33:15.992Z,81.66
2017-06-11T04:34:27.924Z,81.37
2017-06-11T04:35:54.879Z,81.85
2017-06-11T04:37:07.733Z,82.61
2017-06-11T04:38:20.593Z,82.14
2017-06-11T04:39:33.447Z,82.42
2017-06-11T04:40:46.014Z,81.95
2017-06-11T04:41:57.897Z,82.14
2017-06-11T04:43:10.750Z,82.95
2017-06-11T04:44:23.609Z,82.76
2017-06-11T04:45:36.467Z,82.76
2017-06-11T04:46:49.324Z,82.67
2017-06-11T04:48:02.182Z,83.05
2017-06-11T04:49:15.035Z,82.76
2017-06-11T04:50:27.402Z,82.67
2017-06-11T04:51:40.256Z,82.86
2017-06-11T04:52:52.649Z,82.76
2017-06-11T04:54:04.527Z,83.05
2017-06-11T04:55:17.381Z,83.43
2017-06-11T04:56:30.240Z,83.43
2017-06-11T04:57:43.101Z,83.62
2017-06-11T04:58:55.507Z,84.1
2017-06-11T05:00:08.482Z,83.91
2017-06-11T05:01:21.458Z,83.53
2017-06-11T05:02:48.471Z,84.2
2017-06-11T05:04:01.448Z,84
2017-06-11T05:05:13.926Z,83.91
2017-06-11T05:06:25.909Z,84.48
2017-06-11T05:07:38.882Z,84
2017-06-11T05:08:51.854Z,84.77
2017-06-11T05:10:04.835Z,84.77
2017-06-11T05:11:17.813Z,84
2017-06-11T05:12:30.790Z,83.91
2017-06-11T05:13:44.067Z,84.1
2017-06-11T05:14:57.047Z,83.43
2017-06-11T05:16:10.019Z,83.62
2017-06-11T05:17:22.993Z,82.95
2017-06-11T05:18:36.017Z,83.24
2017-06-11T05:19:49.017Z,83.14
2017-06-11T05:21:01.513Z,82.76
2017-06-11T05:22:14.489Z,82.09
2017-06-11T05:23:27.465Z,82.09
2017-06-11T05:24:40.145Z,82.09
2017-06-11T05:25:52.625Z,82.19
2017-06-11T05:27:05.109Z,82.95
2017-06-11T05:28:17.590Z,82.76
2017-06-11T05:29:30.268Z,83.24
2017-06-11T05:30:42.750Z,83.34
2017-06-11T05:31:55.728Z,83.24
2017-06-11T05:33:08.206Z,83.24
2017-06-11T05:34:21.187Z,82.76
2017-06-11T05:35:34.163Z,82.95
2017-06-11T05:36:47.137Z,83.34
2017-06-11T05:37:59.616Z,82.63
2017-06-11T05:39:12.598Z,83.11
2017-06-11T05:40:25.780Z,83.48
2017-06-11T05:41:38.761Z,83.58
2017-06-11T05:42:51.711Z,83.77
2017-06-11T05:44:04.605Z,84.34
2017-06-11T05:45:17.498Z,84.44
2017-06-11T05:46:30.390Z,84.44
2017-06-11T05:47:43.278Z,85.11
2017-06-11T05:48:55.678Z,85.39
2017-06-11T05:50:08.571Z,85.3
2017-06-11T05:51:21.668Z,84.72
2017-06-11T05:52:34.564Z,84.44
2017-06-11T05:53:46.961Z,84.34
2017-06-11T05:54:59.363Z,85.01
2017-06-11T05:56:12.255Z,85.77
2017-06-11T05:57:25.346Z,86.3
2017-06-11T05:58:38.238Z,86.59
2017-06-11T05:59:51.128Z,86.78
2017-06-11T06:01:04.022Z,86.78
2017-06-11T06:02:17.115Z,86.59
2017-06-11T06:03:30.012Z,86.63
2017-06-11T06:04:42.901Z,86.69
2017-06-11T06:05:55.788Z,86.63
2017-06-11T06:07:08.194Z,87.49
2017-06-11T06:08:20.798Z,86.63
2017-06-11T06:09:33.201Z,87.49
2017-06-11T06:10:45.602Z,87.93
2017-06-11T06:11:58.496Z,88.4
2017-06-11T06:13:11.587Z,88.21
2017-06-11T06:14:24.481Z,88.12
2017-06-11T06:15:37.369Z,88.4
2017-06-11T06:16:50.261Z,87.74
2017-06-11T06:18:03.156Z,87.93
2017-06-11T06:19:16.043Z,88.02
2017-06-11T06:20:28.930Z,87.4
2017-06-11T06:21:41.822Z,87.3
2017-06-11T06:22:54.710Z,87.35
2017-06-11T06:24:07.118Z,87.3
2017-06-11T06:25:20.009Z,86.49
2017-06-11T06:26:32.916Z,87.64
2017-06-11T06:27:45.317Z,87.35
2017-06-11T06:28:58.171Z,87.49
2017-06-11T06:30:10.664Z,87.49
2017-06-11T06:31:22.955Z,86.54
2017-06-11T06:32:35.741Z,87.02
2017-06-11T06:33:48.060Z,86.82
2017-06-11T06:35:01.041Z,86.54
2017-06-11T06:36:13.816Z,86.44
2017-06-11T06:37:26.592Z,86.16
2017-06-11T06:38:38.401Z,86.35
2017-06-11T06:39:50.692Z,86.73
2017-06-11T06:41:02.982Z,86.82
2017-06-11T06:42:15.764Z,86.82
2017-06-11T06:43:28.535Z,86.82
2017-06-11T06:44:40.342Z,86.25
2017-06-11T06:45:52.838Z,86.35
2017-06-11T06:47:05.610Z,86.73
2017-06-11T06:48:18.380Z,86.63
2017-06-11T06:49:31.153Z,86.82
2017-06-11T06:50:43.924Z,86.73
2017-06-11T06:51:56.415Z,86.63
2017-06-11T06:53:08.230Z,86.63
2017-06-11T06:54:20.519Z,86.44
2017-06-11T06:55:33.289Z,86.16
2017-06-11T06:56:45.300Z,85.49
2017-06-11T06:57:57.591Z,85.97
2017-06-11T06:59:09.881Z,86.54
2017-06-11T07:00:22.169Z,86.82
2017-06-11T07:01:34.967Z,85.68
2017-06-11T07:02:47.260Z,84.3
2017-06-11T07:03:59.557Z,83.64
2017-06-11T07:05:11.853Z,83.83
2017-06-11T07:06:24.634Z,84.11
2017-06-11T07:07:36.474Z,84.4
2017-06-11T07:08:48.964Z,84.4
2017-06-11T07:10:01.736Z,83.96
2017-06-11T07:11:14.025Z,83.83
2017-06-11T07:12:26.796Z,83.92
2017-06-11T07:13:39.566Z,83.64
2017-06-11T07:14:52.410Z,83.58
2017-06-11T07:16:04.833Z,84.01
2017-06-11T07:17:17.757Z,84.01
2017-06-11T07:18:30.177Z,84.11
2017-06-11T07:19:43.286Z,85.45
2017-06-11T07:20:56.197Z,85.35
2017-06-11T07:22:09.108Z,85.45
2017-06-11T07:23:21.529Z,85.16
2017-06-11T07:24:34.642Z,85.35
2017-06-11T07:25:47.065Z,85.35
2017-06-11T07:26:59.973Z,85.83
2017-06-11T07:28:12.888Z,85.73
2017-06-11T07:29:25.317Z,85.45
2017-06-11T07:30:37.746Z,85.45
2017-06-11T07:31:50.167Z,85.25
2017-06-11T07:33:03.085Z,85.35
2017-06-11T07:34:15.514Z,85.45
2017-06-11T07:35:28.418Z,85.64
2017-06-11T07:36:41.331Z,85.93
2017-06-11T07:37:54.245Z,85.73
2017-06-11T07:39:07.158Z,85.73
2017-06-11T07:40:20.065Z,86.11
2017-06-11T07:41:33.004Z,86.11
2017-06-11T07:42:44.934Z,85.93
2017-06-11T07:43:57.374Z,86.3
2017-06-11T07:45:09.792Z,86.69
2017-06-11T07:46:22.899Z,87.07
2017-06-11T07:47:35.810Z,86.88
2017-06-11T07:48:48.238Z,86.59
2017-06-11T07:50:01.144Z,86.69
2017-06-11T07:51:14.052Z,86.69
2017-06-11T07:52:26.962Z,86.88
2017-06-11T07:53:39.381Z,86.59
2017-06-11T07:54:52.293Z,86.78
2017-06-11T07:56:05.237Z,86.4
2017-06-11T07:57:18.507Z,86.78
2017-06-11T07:58:31.559Z,86.69
2017-06-11T07:59:44.572Z,86.78
2017-06-11T08:00:56.998Z,86.59
2017-06-11T08:02:09.923Z,86.4
2017-06-11T08:03:22.845Z,85.83
2017-06-11T08:04:35.771Z,85.83
2017-06-11T08:05:47.717Z,86.02
2017-06-11T08:07:00.146Z,85.45
2017-06-11T08:08:13.064Z,86.02
2017-06-11T08:09:25.980Z,86.11
2017-06-11T08:10:38.401Z,85.73
2017-06-11T08:11:51.330Z,86.02
2017-06-11T08:13:04.247Z,85.64
2017-06-11T08:14:17.162Z,85.54
2017-06-11T08:15:30.078Z,85.64
2017-06-11T08:16:43.009Z,86.4
2017-06-11T08:17:55.934Z,85.45
2017-06-11T08:19:09.046Z,85.25
2017-06-11T08:20:20.980Z,85.35
2017-06-11T08:21:33.905Z,85.54
2017-06-11T08:22:46.825Z,85.06
2017-06-11T08:23:59.777Z,85.35
2017-06-11T08:25:12.903Z,85.25
2017-06-11T08:26:24.842Z,84.88
2017-06-11T08:27:37.766Z,84.88
2017-06-11T08:28:50.682Z,84.16
2017-06-11T08:30:03.596Z,83.92
2017-06-11T08:31:16.517Z,83.96
2017-06-11T08:32:29.438Z,84.88
2017-06-11T08:33:42.360Z,85.21
2017-06-11T08:34:55.280Z,85.77
2017-06-11T08:36:08.401Z,86.44
2017-06-11T08:37:21.322Z,86.11
2017-06-11T08:38:34.242Z,86.69
2017-06-11T08:39:47.167Z,86.88
2017-06-11T08:40:59.592Z,87.35
2017-06-11T08:42:12.546Z,87.64
2017-06-11T08:43:24.969Z,87.54
2017-06-11T08:44:37.934Z,87.64
2017-06-11T08:45:50.987Z,87.26
2017-06-11T08:47:04.039Z,87.16
2017-06-11T08:48:17.096Z,87.07
2017-06-11T08:49:29.169Z,87.26
2017-06-11T08:50:41.725Z,86.88
2017-06-11T08:51:54.971Z,86.16
2017-06-11T08:53:08.042Z,85.97
2017-06-11T08:54:21.096Z,85.87
2017-06-11T08:55:34.177Z,85.77
2017-06-11T08:56:47.233Z,86.06
2017-06-11T08:58:00.284Z,86.06
2017-06-11T08:59:13.340Z,86.35
2017-06-11T09:00:25.895Z,86.63
2017-06-11T09:01:38.479Z,86.54
2017-06-11T09:02:50.993Z,86.54
2017-06-11T09:04:03.907Z,86.54
2017-06-11T09:05:16.325Z,86.35
2017-06-11T09:06:29.235Z,87.21
2017-06-11T09:07:42.141Z,87.16
2017-06-11T09:08:55.253Z,87.49
2017-06-11T09:10:08.183Z,86.73
2017-06-11T09:11:21.094Z,87.21
2017-06-11T09:12:34.004Z,86.59
2017-06-11T09:13:47.113Z,86.63
2017-06-11T09:15:00.018Z,86.54
2017-06-11T09:16:12.925Z,86.16
2017-06-11T09:17:25.835Z,85.87
2017-06-11T09:18:38.757Z,85.87
2017-06-11T09:19:51.379Z,85.58
2017-06-11T09:21:04.297Z,85.93
2017-06-11T09:22:17.209Z,85.93
2017-06-11T09:23:30.122Z,85.93
2017-06-11T09:24:43.031Z,86.3
2017-06-11T09:25:55.944Z,85.93
2017-06-11T09:27:08.369Z,86.78
2017-06-11T09:28:21.282Z,86.4
2017-06-11T09:29:34.145Z,87.35
2017-06-11T09:30:47.120Z,87.83
2017-06-11T09:31:59.410Z,87.93
2017-06-11T09:33:12.182Z,88.36
2017-06-11T09:34:24.952Z,88.64
2017-06-11T09:35:37.931Z,88.55
2017-06-11T09:36:50.225Z,88.45
2017-06-11T09:38:02.996Z,88.17
2017-06-11T09:39:15.283Z,88.64
2017-06-11T09:40:28.054Z,88.17
2017-06-11T09:41:41.025Z,88.45
2017-06-11T09:42:53.316Z,88.17
2017-06-11T09:44:06.090Z,88.64
2017-06-11T09:45:18.865Z,88.12
2017-06-11T09:46:31.154Z,87.83
2017-06-11T09:47:43.446Z,88.59
2017-06-11T09:48:55.734Z,88.74
2017-06-11T09:50:08.042Z,88.55
2017-06-11T09:51:20.812Z,88.93
2017-06-11T09:52:33.582Z,89.03
2017-06-11T09:53:45.869Z,89.5
2017-06-11T09:54:58.639Z,89.79
2017-06-11T09:56:11.411Z,89.22
2017-06-11T09:57:23.903Z,88.64
2017-06-11T09:58:36.678Z,89.69
2017-06-11T09:59:48.971Z,89.4
2017-06-11T10:01:01.746Z,88.64
2017-06-11T10:02:14.067Z,88.64
2017-06-11T10:03:26.557Z,88.55
2017-06-11T10:04:39.334Z,88.26
2017-06-11T10:05:51.624Z,88.17
2017-06-11T10:07:03.434Z,88.17
2017-06-11T10:08:16.205Z,88.64
2017-06-11T10:09:28.492Z,88.26
2017-06-11T10:10:40.314Z,88.36
2017-06-11T10:11:52.606Z,88.07
2017-06-11T10:13:05.376Z,87.79
2017-06-11T10:14:18.350Z,87.69
2017-06-11T10:15:31.171Z,87.4
2017-06-11T10:16:43.952Z,87.5
2017-06-11T10:17:56.724Z,87.6
2017-06-11T10:19:09.702Z,87.5
2017-06-11T10:20:22.476Z,87.12
2017-06-11T10:21:35.251Z,87.16
2017-06-11T10:22:48.031Z,87.5
2017-06-11T10:24:00.804Z,88.07
2017-06-11T10:25:13.304Z,87.6
2017-06-11T10:26:26.090Z,87.88
2017-06-11T10:27:38.863Z,88.17
2017-06-11T10:28:50.673Z,88.26
2017-06-11T10:30:02.966Z,88.26
2017-06-11T10:31:15.264Z,88.55
2017-06-11T10:32:28.039Z,88.45
2017-06-11T10:33:40.809Z,88.78
2017-06-11T10:34:53.101Z,88.31
2017-06-11T10:36:05.600Z,88.5
2017-06-11T10:37:17.416Z,88.69
2017-06-11T10:38:29.711Z,87.83
2017-06-11T10:39:42.495Z,88.21
2017-06-11T10:40:55.471Z,88.69
2017-06-11T10:42:07.770Z,87.83
2017-06-11T10:43:20.550Z,87.93
2017-06-11T10:44:32.849Z,88.69
2017-06-11T10:45:45.156Z,88.88
2017-06-11T10:46:57.656Z,88.4
2017-06-11T10:48:10.426Z,88.5
2017-06-11T10:49:23.202Z,88.78
2017-06-11T10:50:35.988Z,88.69
2017-06-11T10:51:48.009Z,88.69
2017-06-11T10:53:00.795Z,88.4
2017-06-11T10:54:13.569Z,88.4
2017-06-11T10:55:26.346Z,88.5
2017-06-11T10:56:39.131Z,88.31
2017-06-11T10:57:51.914Z,87.83
2017-06-11T10:59:04.756Z,88.5
2017-06-11T11:00:17.671Z,87.83
2017-06-11T11:01:30.582Z,87.64
2017-06-11T11:02:43.494Z,88.12
2017-06-11T11:03:56.401Z,88.12
2017-06-11T11:05:09.316Z,88.69
2017-06-11T11:06:21.741Z,88.21
2017-06-11T11:07:34.160Z,88.69
2017-06-11T11:08:46.289Z,88.5
2017-06-11T11:09:59.198Z,88.31
2017-06-11T11:11:11.631Z,87.68
2017-06-11T11:12:24.540Z,87.49
2017-06-11T11:13:37.650Z,87.59
2017-06-11T11:14:50.559Z,87.87
2017-06-11T11:16:03.470Z,88.16
2017-06-11T11:17:16.380Z,87.68
2017-06-11T11:18:29.294Z,88.07
2017-06-11T11:19:41.714Z,87.59
2017-06-11T11:20:54.630Z,87.21
2017-06-11T11:22:07.538Z,87.3
2017-06-11T11:23:20.453Z,87.54
2017-06-11T11:24:33.563Z,87.16
2017-06-11T11:25:45.986Z,88.07
2017-06-11T11:26:58.400Z,88.16
2017-06-11T11:28:10.820Z,87.78
2017-06-11T11:29:23.235Z,87.97
2017-06-11T11:30:36.149Z,88.16
2017-06-11T11:31:49.060Z,88.64
2017-06-11T11:33:01.967Z,87.68
2017-06-11T11:34:13.904Z,88.16
2017-06-11T11:35:27.010Z,88.45
2017-06-11T11:36:39.921Z,87.92
2017-06-11T11:37:52.837Z,87.15
2017-06-11T11:39:05.256Z,85.72
2017-06-11T11:40:17.671Z,86.01
2017-06-11T11:41:30.589Z,84.33
2017-06-11T11:42:43.006Z,82.61
2017-06-11T11:43:55.872Z,82.23
2017-06-11T11:45:08.167Z,82.32
2017-06-11T11:46:21.144Z,82.61
2017-06-11T11:47:33.434Z,83.13
2017-06-11T11:48:46.211Z,82.18
2017-06-11T11:49:58.994Z,81.32
2017-06-11T11:51:11.302Z,81.74
2017-06-11T11:52:24.079Z,80.3
2017-06-11T11:53:36.371Z,79.58
2017-06-11T11:54:49.145Z,78.63
2017-06-11T11:56:01.930Z,78.43
2017-06-11T11:57:14.706Z,77.28
2017-06-11T11:58:27.475Z,77.09
2017-06-11T11:59:39.763Z,76.81
2017-06-11T12:00:51.578Z,76.84
2017-06-11T12:02:04.362Z,76.65
2017-06-11T12:03:16.888Z,75.31
2017-06-11T12:04:29.180Z,74.68
2017-06-11T12:05:41.979Z,74.11
2017-06-11T12:06:54.758Z,71.91
2017-06-11T12:08:07.543Z,71.46
2017-06-11T12:09:20.319Z,70.89
2017-06-11T12:10:33.112Z,69.77
2017-06-11T12:11:45.885Z,69.2
2017-06-11T12:12:58.662Z,68.81
2017-06-11T12:14:11.639Z,68.37
2017-06-11T12:15:24.410Z,67.89
2017-06-11T12:16:37.187Z,67.69
2017-06-11T12:17:49.970Z,67.5
2017-06-11T12:19:02.746Z,66.86
2017-06-11T12:20:15.524Z,66.86
2017-06-11T12:21:27.819Z,65.81
2017-06-11T12:22:40.604Z,65.62
2017-06-11T12:23:53.395Z,66.03
2017-06-11T12:25:06.168Z,64.89
2017-06-11T12:26:18.947Z,64.69
2017-06-11T12:27:31.751Z,65.36
2017-06-11T12:28:44.527Z,64.59
2017-06-11T12:29:56.918Z,64.79
2017-06-11T12:31:08.837Z,64.4
2017-06-11T12:32:21.731Z,64.69
2017-06-11T12:33:34.622Z,63.48
2017-06-11T12:34:47.510Z,62.99
2017-06-11T12:36:00.611Z,63.48
2017-06-11T12:37:13.014Z,62.81
2017-06-11T12:38:25.922Z,62.9
2017-06-11T12:39:38.322Z,62.71
2017-06-11T12:40:51.411Z,62.52
2017-06-11T12:42:03.805Z,62.9
2017-06-11T12:43:16.698Z,61.94
2017-06-11T12:44:29.594Z,61.01
2017-06-11T12:45:42.491Z,61.58
2017-06-11T12:46:55.388Z,61.97
2017-06-11T12:48:08.281Z,60.72
2017-06-11T12:49:21.172Z,60.82
2017-06-11T12:50:34.084Z,60.98
2017-06-11T12:51:46.980Z,60.11
2017-06-11T12:52:59.876Z,60.72
2017-06-11T12:54:12.766Z,60.91
2017-06-11T12:55:25.661Z,60.63
2017-06-11T12:56:38.555Z,59.76
2017-06-11T12:57:51.449Z,59.95
2017-06-11T12:59:04.349Z,59.12
2017-06-11T13:00:17.251Z,59.02
2017-06-11T13:01:29.657Z,58.89
2017-06-11T13:02:42.056Z,60.05
2017-06-11T13:03:54.952Z,59.66
2017-06-11T13:05:07.846Z,59.76
2017-06-11T13:06:20.741Z,60.05
2017-06-11T13:07:33.147Z,59.95
2017-06-11T13:08:46.037Z,59.95
2017-06-11T13:09:58.931Z,60.63
2017-06-11T13:11:11.828Z,59.76
2017-06-11T13:12:24.726Z,59.95
2017-06-11T13:13:37.624Z,59.57
2017-06-11T13:14:50.520Z,59.54
2017-06-11T13:16:03.412Z,59.83
2017-06-11T13:17:15.837Z,59.83
2017-06-11T13:18:28.728Z,60.21
2017-06-11T13:19:41.622Z,60.69
2017-06-11T13:20:53.539Z,60.78
2017-06-11T13:22:06.435Z,60.88
2017-06-11T13:23:19.330Z,60.4
2017-06-11T13:24:32.423Z,60.69
2017-06-11T13:25:45.334Z,61.24
2017-06-11T13:26:58.228Z,61.62
2017-06-11T13:28:10.632Z,62.1
2017-06-11T13:29:23.524Z,62.45
2017-06-11T13:30:35.925Z,62.29
2017-06-11T13:31:48.817Z,62.68
2017-06-11T13:33:01.218Z,62.45
2017-06-11T13:34:13.616Z,63.92
2017-06-11T13:35:26.218Z,64.79
2017-06-11T13:36:39.111Z,64.22
2017-06-11T13:37:51.515Z,64.4
2017-06-11T13:39:03.913Z,64.02
2017-06-11T13:40:15.822Z,63.92
2017-06-11T13:41:28.912Z,63.73
2017-06-11T13:42:41.804Z,63.16
2017-06-11T13:43:54.695Z,62.58
2017-06-11T13:45:07.588Z,62.68
2017-06-11T13:46:20.483Z,62.68
2017-06-11T13:47:33.377Z,63.25
2017-06-11T13:48:46.269Z,63.35
2017-06-11T13:49:58.674Z,63.73
2017-06-11T13:51:11.566Z,63.64
2017-06-11T13:52:24.168Z,64.05
2017-06-11T13:53:37.076Z,64.05
2017-06-11T13:54:49.970Z,63.86
2017-06-11T13:56:02.872Z,63.19
2017-06-11T13:57:15.766Z,63.38
2017-06-11T13:58:28.168Z,62.61
2017-06-11T13:59:41.070Z,62.23
2017-06-11T14:00:53.001Z,62.13
2017-06-11T14:02:05.912Z,62.32
2017-06-11T14:03:18.828Z,62.52
2017-06-11T14:04:31.761Z,62.32
2017-06-11T14:05:44.681Z,62.23
2017-06-11T14:06:57.102Z,61.75
2017-06-11T14:08:09.722Z,62.23
2017-06-11T14:09:22.640Z,62.16
2017-06-11T14:10:35.553Z,61.94
2017-06-11T14:11:48.463Z,61.68
2017-06-11T14:13:01.376Z,61.78
2017-06-11T14:14:14.287Z,61.97
2017-06-11T14:15:27.231Z,62.16
2017-06-11T14:16:40.145Z,62.07
2017-06-11T14:17:53.058Z,61.87
2017-06-11T14:19:05.968Z,61.58
2017-06-11T14:20:18.878Z,60.75
2017-06-11T14:21:31.790Z,60.66
2017-06-11T14:22:43.720Z,60.56
2017-06-11T14:23:56.634Z,60.94
2017-06-11T14:25:09.256Z,60.59
2017-06-11T14:26:22.178Z,59.92
2017-06-11T14:27:34.622Z,59.63
2017-06-11T14:28:47.534Z,59.41
2017-06-11T14:29:59.957Z,59.41
2017-06-11T14:31:12.878Z,59.6
2017-06-11T14:32:25.839Z,59.63
2017-06-11T14:33:38.820Z,59.15
2017-06-11T14:34:51.868Z,58.76
2017-06-11T14:36:04.577Z,58.37
2017-06-11T14:37:17.001Z,58.86
2017-06-11T14:38:29.423Z,59.34
2017-06-11T14:39:42.356Z,58.86
2017-06-11T14:40:55.469Z,58.95
2017-06-11T14:42:08.387Z,58.18
2017-06-11T14:43:20.817Z,57.8
2017-06-11T14:44:33.731Z,57.7
2017-06-11T14:45:46.645Z,57.8
2017-06-11T14:47:13.117Z,58.95
2017-06-11T14:48:26.036Z,59.15
2017-06-11T14:49:38.958Z,58.95
2017-06-11T14:50:51.389Z,59.02
2017-06-11T14:52:04.014Z,58.35
2017-06-11T14:53:16.438Z,58.92
2017-06-11T14:54:29.359Z,58.64
2017-06-11T14:55:42.273Z,59.12
2017-06-11T14:56:54.699Z,58.83
2017-06-11T14:58:07.325Z,59.12
2017-06-11T14:59:20.236Z,58.92
2017-06-11T15:00:32.656Z,59.22
2017-06-11T15:01:45.570Z,59.38
2017-06-11T15:02:57.991Z,59.19
2017-06-11T15:04:10.907Z,59.57
2017-06-11T15:05:23.329Z,59.79
2017-06-11T15:06:36.251Z,59.57
2017-06-11T15:07:48.675Z,59.19
2017-06-11T15:09:01.097Z,59.41
2017-06-11T15:10:14.011Z,59.6
2017-06-11T15:11:26.434Z,59.19
2017-06-11T15:12:38.859Z,59.19
2017-06-11T15:13:51.972Z,59.09
2017-06-11T15:15:04.395Z,59.22
2017-06-11T15:16:17.307Z,58.99
2017-06-11T15:17:29.729Z,59.09
2017-06-11T15:18:42.644Z,58.99
2017-06-11T15:19:55.065Z,59.38
2017-06-11T15:21:07.980Z,59.5
2017-06-11T15:22:20.896Z,59.66
2017-06-11T15:23:33.813Z,59.31
2017-06-11T15:24:46.729Z,58.92
2017-06-11T15:25:59.643Z,58.83
2017-06-11T15:27:12.557Z,58.83
2017-06-11T15:28:24.979Z,59.02
2017-06-11T15:29:37.888Z,58.83
2017-06-11T15:30:50.981Z,59.22
2017-06-11T15:32:03.391Z,58.15
2017-06-11T15:33:15.796Z,57.97
2017-06-11T15:34:28.689Z,56.81
2017-06-11T15:35:41.585Z,56.91
2017-06-11T15:36:54.484Z,56.23
2017-06-11T15:38:07.385Z,55.46
2017-06-11T15:39:20.311Z,55.37
2017-06-11T15:40:33.223Z,55.66